Laurel, Florida
Current Conditions -  °F | °C
As of 6:55 AM on Monday 24 Nov 2014 (Local Time) from KVNC Reporting Station
Moderate Fog Moderate Fog  
Wind Chill: 23°   Ceiling: 200
Heat Index: 23°   Visibility: 0.5mi
Dew Point: 23°   Wind: 12mph
Humidity: 100%   Direction: 170°S
Pressure: 29.96"   Gusts: 16mph
Location:  27.14°N, 82.46°W
Report Text: KVNC 241155Z AUTO 17010G14KT 1/2SM FG OVC002 23/23 A2996 RMK AO2 TSNO
Loading
Personal Weather Stations






























Interactive Weather Map New forecast layout! Learn more

10-Day Weather Forecast

Advertisements
Track Severe Weather on mobile